sensor_id;sensor_type;location;lat;lon;timestamp;P1;durP1;ratioP1;P2;durP2;ratioP2
17147;SDS011;8689;47.364;8.796;2023-10-13T01:52:54;7.73;;;3.30;;
17147;SDS011;8689;47.364;8.796;2023-10-13T01:58:25;5.57;;;3.57;;
17147;SDS011;8689;47.364;8.796;2023-10-13T02:00:11;4.40;;;3.57;;
17147;SDS011;8689;47.364;8.796;2023-10-13T02:06:26;3.97;;;3.30;;
17147;SDS011;8689;47.364;8.796;2023-10-13T02:30:17;9.03;;;4.90;;
17147;SDS011;8689;47.364;8.796;2023-10-13T02:33:34;4.00;;;3.17;;
17147;SDS011;8689;47.364;8.796;2023-10-13T02:36:43;5.80;;;3.40;;
17147;SDS011;8689;47.364;8.796;2023-10-13T02:43:41;4.10;;;3.70;;
17147;SDS011;8689;47.364;8.796;2023-10-13T05:16:08;4.33;;;3.87;;
17147;SDS011;8689;47.364;8.796;2023-10-13T05:22:12;5.63;;;3.60;;
17147;SDS011;8689;47.364;8.796;2023-10-13T05:25:23;11.37;;;4.43;;
17147;SDS011;8689;47.364;8.796;2023-10-13T05:31:52;18.43;;;6.90;;
17147;SDS011;8689;47.364;8.796;2023-10-13T05:34:38;7.60;;;4.30;;
17147;SDS011;8689;47.364;8.796;2023-10-13T05:37:28;7.20;;;4.40;;
17147;SDS011;8689;47.364;8.796;2023-10-13T05:40:33;4.63;;;4.23;;
17147;SDS011;8689;47.364;8.796;2023-10-13T05:43:17;9.97;;;4.40;;
17147;SDS011;8689;47.364;8.796;2023-10-13T05:47:47;6.90;;;4.33;;
17147;SDS011;8689;47.364;8.796;2023-10-13T05:50:05;4.93;;;4.43;;
17147;SDS011;8689;47.364;8.796;2023-10-13T06:03:51;10.07;;;4.20;;
17147;SDS011;8689;47.364;8.796;2023-10-13T06:07:07;8.73;;;4.83;;
17147;SDS011;8689;47.364;8.796;2023-10-13T06:10:17;6.67;;;3.97;;
17147;SDS011;8689;47.364;8.796;2023-10-13T06:13:07;8.03;;;3.97;;
17147;SDS011;8689;47.364;8.796;2023-10-13T06:15:48;9.33;;;5.47;;
17147;SDS011;8689;47.364;8.796;2023-10-13T06:25:26;7.50;;;4.37;;
17147;SDS011;8689;47.364;8.796;2023-10-13T06:30:52;10.20;;;4.57;;
17147;SDS011;8689;47.364;8.796;2023-10-13T06:31:38;9.83;;;5.37;;
17147;SDS011;8689;47.364;8.796;2023-10-13T06:34:13;14.70;;;4.47;;
17147;SDS011;8689;47.364;8.796;2023-10-13T06:37:11;5.80;;;3.90;;
17147;SDS011;8689;47.364;8.796;2023-10-13T06:39:52;11.87;;;4.77;;
17147;SDS011;8689;47.364;8.796;2023-10-13T06:42:45;6.80;;;4.20;;
17147;SDS011;8689;47.364;8.796;2023-10-13T06:48:49;7.10;;;4.57;;
17147;SDS011;8689;47.364;8.796;2023-10-13T06:58:10;11.37;;;4.83;;
17147;SDS011;8689;47.364;8.796;2023-10-13T07:01:38;7.30;;;4.33;;
17147;SDS011;8689;47.364;8.796;2023-10-13T07:14:20;8.77;;;4.33;;
17147;SDS011;8689;47.364;8.796;2023-10-13T07:16:55;10.13;;;4.37;;
17147;SDS011;8689;47.364;8.796;2023-10-13T07:19:43;6.63;;;4.17;;
17147;SDS011;8689;47.364;8.796;2023-10-13T07:22:22;8.57;;;4.20;;
17147;SDS011;8689;47.364;8.796;2023-10-13T07:38:53;6.07;;;4.20;;
17147;SDS011;8689;47.364;8.796;2023-10-13T07:48:52;6.90;;;3.87;;
17147;SDS011;8689;47.364;8.796;2023-10-13T07:58:47;4.93;;;3.50;;
17147;SDS011;8689;47.364;8.796;2023-10-13T08:01:35;5.33;;;3.30;;
17147;SDS011;8689;47.364;8.796;2023-10-13T08:04:31;5.40;;;3.33;;
17147;SDS011;8689;47.364;8.796;2023-10-13T08:12:01;7.93;;;3.43;;
17147;SDS011;8689;47.364;8.796;2023-10-13T08:14:08;4.73;;;2.90;;
17147;SDS011;8689;47.364;8.796;2023-10-13T08:16:53;4.07;;;3.40;;
17147;SDS011;8689;47.364;8.796;2023-10-13T08:26:22;5.17;;;3.13;;
17147;SDS011;8689;47.364;8.796;2023-10-13T08:32:32;8.57;;;3.37;;
17147;SDS011;8689;47.364;8.796;2023-10-13T08:35:19;5.07;;;2.97;;
17147;SDS011;8689;47.364;8.796;2023-10-13T08:37:59;8.70;;;3.33;;
17147;SDS011;8689;47.364;8.796;2023-10-13T08:40:43;9.10;;;3.97;;
17147;SDS011;8689;47.364;8.796;2023-10-13T08:43:38;7.57;;;3.53;;
17147;SDS011;8689;47.364;8.796;2023-10-13T08:46:10;19.47;;;3.47;;
17147;SDS011;8689;47.364;8.796;2023-10-13T08:48:54;5.73;;;3.00;;
17147;SDS011;8689;47.364;8.796;2023-10-13T08:51:33;7.63;;;3.00;;
17147;SDS011;8689;47.364;8.796;2023-10-13T08:54:13;16.27;;;3.63;;
17147;SDS011;8689;47.364;8.796;2023-10-13T08:56:59;4.30;;;2.80;;
17147;SDS011;8689;47.364;8.796;2023-10-13T08:59:44;5.37;;;2.97;;
17147;SDS011;8689;47.364;8.796;2023-10-13T09:02:19;5.73;;;3.50;;
17147;SDS011;8689;47.364;8.796;2023-10-13T09:05:10;10.93;;;2.77;;
17147;SDS011;8689;47.364;8.796;2023-10-13T09:07:51;9.50;;;2.97;;
17147;SDS011;8689;47.364;8.796;2023-10-13T09:10:23;4.93;;;2.97;;
17147;SDS011;8689;47.364;8.796;2023-10-13T09:12:58;4.33;;;2.50;;
17147;SDS011;8689;47.364;8.796;2023-10-13T09:15:28;7.10;;;3.07;;
17147;SDS011;8689;47.364;8.796;2023-10-13T09:18:24;5.07;;;3.17;;
17147;SDS011;8689;47.364;8.796;2023-10-13T09:21:14;9.10;;;3.50;;
17147;SDS011;8689;47.364;8.796;2023-10-13T09:24:11;6.33;;;2.70;;
17147;SDS011;8689;47.364;8.796;2023-10-13T09:26:52;7.80;;;3.47;;
17147;SDS011;8689;47.364;8.796;2023-10-13T09:29:20;3.40;;;2.77;;
17147;SDS011;8689;47.364;8.796;2023-10-13T09:31:58;6.30;;;2.60;;
17147;SDS011;8689;47.364;8.796;2023-10-13T09:34:25;8.73;;;3.23;;
17147;SDS011;8689;47.364;8.796;2023-10-13T09:36:59;6.57;;;2.60;;
17147;SDS011;8689;47.364;8.796;2023-10-13T09:39:28;7.63;;;2.50;;
17147;SDS011;8689;47.364;8.796;2023-10-13T09:42:11;5.87;;;2.20;;
17147;SDS011;8689;47.364;8.796;2023-10-13T09:44:43;7.75;;;2.50;;
17147;SDS011;8689;47.364;8.796;2023-10-13T09:47:17;5.10;;;2.40;;
17147;SDS011;8689;47.364;8.796;2023-10-13T09:49:57;3.03;;;1.67;;
17147;SDS011;8689;47.364;8.796;2023-10-13T09:52:32;7.55;;;1.92;;
17147;SDS011;8689;47.364;8.796;2023-10-13T09:58:12;7.28;;;2.08;;
17147;SDS011;8689;47.364;8.796;2023-10-13T10:00:46;6.22;;;1.92;;
17147;SDS011;8689;47.364;8.796;2023-10-13T10:03:45;4.97;;;2.28;;
17147;SDS011;8689;47.364;8.796;2023-10-13T10:06:22;6.97;;;2.42;;
17147;SDS011;8689;47.364;8.796;2023-10-13T10:09:07;5.28;;;1.75;;
17147;SDS011;8689;47.364;8.796;2023-10-13T10:11:55;5.93;;;2.33;;
17147;SDS011;8689;47.364;8.796;2023-10-13T10:14:40;9.23;;;2.78;;
17147;SDS011;8689;47.364;8.796;2023-10-13T10:17:20;6.57;;;2.53;;
17147;SDS011;8689;47.364;8.796;2023-10-13T10:19:49;9.90;;;1.83;;
17147;SDS011;8689;47.364;8.796;2023-10-13T10:22:27;5.60;;;1.80;;
17147;SDS011;8689;47.364;8.796;2023-10-13T10:25:00;11.32;;;2.72;;
17147;SDS011;8689;47.364;8.796;2023-10-13T10:27:28;5.80;;;1.80;;
17147;SDS011;8689;47.364;8.796;2023-10-13T10:30:29;4.85;;;2.40;;
17147;SDS011;8689;47.364;8.796;2023-10-13T10:33:29;6.93;;;2.33;;
17147;SDS011;8689;47.364;8.796;2023-10-13T10:36:00;3.53;;;1.63;;
17147;SDS011;8689;47.364;8.796;2023-10-13T10:38:27;5.60;;;1.92;;
17147;SDS011;8689;47.364;8.796;2023-10-13T10:41:05;7.28;;;1.60;;
17147;SDS011;8689;47.364;8.796;2023-10-13T10:43:38;5.55;;;1.98;;
17147;SDS011;8689;47.364;8.796;2023-10-13T10:46:09;8.85;;;1.88;;
17147;SDS011;8689;47.364;8.796;2023-10-13T10:48:37;6.07;;;1.77;;
17147;SDS011;8689;47.364;8.796;2023-10-13T10:51:08;4.05;;;1.70;;
17147;SDS011;8689;47.364;8.796;2023-10-13T10:53:46;2.65;;;1.60;;
17147;SDS011;8689;47.364;8.796;2023-10-13T10:56:18;5.15;;;1.92;;
17147;SDS011;8689;47.364;8.796;2023-10-13T10:58:53;7.78;;;2.03;;
17147;SDS011;8689;47.364;8.796;2023-10-13T11:01:25;6.47;;;2.28;;
17147;SDS011;8689;47.364;8.796;2023-10-13T11:03:59;3.28;;;1.38;;
17147;SDS011;8689;47.364;8.796;2023-10-13T11:06:38;3.72;;;1.83;;
17147;SDS011;8689;47.364;8.796;2023-10-13T11:09:52;3.60;;;1.70;;
17147;SDS011;8689;47.364;8.796;2023-10-13T11:13:04;5.45;;;2.38;;
17147;SDS011;8689;47.364;8.796;2023-10-13T11:15:42;3.35;;;1.75;;
17147;SDS011;8689;47.364;8.796;2023-10-13T11:18:10;3.35;;;1.60;;
17147;SDS011;8689;47.364;8.796;2023-10-13T11:20:55;5.90;;;2.22;;
17147;SDS011;8689;47.364;8.796;2023-10-13T11:34:29;7.93;;;2.20;;
17147;SDS011;8689;47.364;8.796;2023-10-13T11:37:09;7.18;;;1.85;;
17147;SDS011;8689;47.364;8.796;2023-10-13T11:50:09;5.13;;;2.10;;
17147;SDS011;8689;47.364;8.796;2023-10-13T12:17:40;19.20;;;2.67;;
17147;SDS011;8689;47.364;8.796;2023-10-13T12:40:38;7.20;;;2.00;;
17147;SDS011;8689;47.364;8.796;2023-10-13T12:43:22;5.97;;;1.92;;
17147;SDS011;8689;47.364;8.796;2023-10-13T12:49:11;6.15;;;2.10;;
17147;SDS011;8689;47.364;8.796;2023-10-13T12:52:01;5.93;;;1.90;;
17147;SDS011;8689;47.364;8.796;2023-10-13T12:54:44;7.32;;;2.20;;
17147;SDS011;8689;47.364;8.796;2023-10-13T12:57:26;8.93;;;2.17;;
17147;SDS011;8689;47.364;8.796;2023-10-13T12:59:55;7.45;;;2.35;;
17147;SDS011;8689;47.364;8.796;2023-10-13T13:02:22;7.40;;;2.03;;
17147;SDS011;8689;47.364;8.796;2023-10-13T13:04:53;3.58;;;1.80;;
17147;SDS011;8689;47.364;8.796;2023-10-13T13:07:22;7.30;;;1.80;;
17147;SDS011;8689;47.364;8.796;2023-10-13T13:12:43;6.40;;;2.08;;
17147;SDS011;8689;47.364;8.796;2023-10-13T13:15:12;3.35;;;2.17;;
17147;SDS011;8689;47.364;8.796;2023-10-13T13:17:40;5.22;;;1.75;;
17147;SDS011;8689;47.364;8.796;2023-10-13T13:20:09;3.83;;;2.28;;
17147;SDS011;8689;47.364;8.796;2023-10-13T13:22:52;3.72;;;2.00;;
17147;SDS011;8689;47.364;8.796;2023-10-13T13:25:29;2.67;;;1.67;;
17147;SDS011;8689;47.364;8.796;2023-10-13T13:27:59;4.97;;;2.17;;
17147;SDS011;8689;47.364;8.796;2023-10-13T13:30:35;6.78;;;1.63;;
17147;SDS011;8689;47.364;8.796;2023-10-13T13:33:11;3.65;;;1.90;;
17147;SDS011;8689;47.364;8.796;2023-10-13T13:35:49;9.88;;;2.70;;
17147;SDS011;8689;47.364;8.796;2023-10-13T13:38:20;12.73;;;2.70;;
17147;SDS011;8689;47.364;8.796;2023-10-13T13:40:52;6.10;;;1.90;;
17147;SDS011;8689;47.364;8.796;2023-10-13T13:43:31;5.78;;;2.10;;
17147;SDS011;8689;47.364;8.796;2023-10-13T13:46:06;6.22;;;2.47;;
17147;SDS011;8689;47.364;8.796;2023-10-13T13:48:43;7.68;;;2.28;;
17147;SDS011;8689;47.364;8.796;2023-10-13T13:51:12;8.82;;;2.28;;
17147;SDS011;8689;47.364;8.796;2023-10-13T13:53:53;7.22;;;2.08;;
17147;SDS011;8689;47.364;8.796;2023-10-13T13:56:21;2.85;;;1.90;;
17147;SDS011;8689;47.364;8.796;2023-10-13T13:58:52;6.28;;;2.13;;
17147;SDS011;8689;47.364;8.796;2023-10-13T14:01:21;6.60;;;2.42;;
17147;SDS011;8689;47.364;8.796;2023-10-13T14:03:50;10.55;;;1.77;;
17147;SDS011;8689;47.364;8.796;2023-10-13T14:06:22;13.88;;;2.47;;
17147;SDS011;8689;47.364;8.796;2023-10-13T14:08:52;4.93;;;2.53;;
17147;SDS011;8689;47.364;8.796;2023-10-13T14:11:21;7.70;;;2.65;;
17147;SDS011;8689;47.364;8.796;2023-10-13T14:14:05;5.18;;;2.20;;
17147;SDS011;8689;47.364;8.796;2023-10-13T14:16:37;4.53;;;2.30;;
17147;SDS011;8689;47.364;8.796;2023-10-13T14:19:09;5.78;;;2.03;;
17147;SDS011;8689;47.364;8.796;2023-10-13T14:21:37;8.73;;;2.38;;
17147;SDS011;8689;47.364;8.796;2023-10-13T14:24:07;5.47;;;2.70;;
17147;SDS011;8689;47.364;8.796;2023-10-13T14:26:40;12.88;;;2.85;;
17147;SDS011;8689;47.364;8.796;2023-10-13T14:29:11;10.48;;;2.70;;
17147;SDS011;8689;47.364;8.796;2023-10-13T14:31:41;9.05;;;2.60;;
17147;SDS011;8689;47.364;8.796;2023-10-13T14:34:11;17.10;;;4.18;;
17147;SDS011;8689;47.364;8.796;2023-10-13T14:36:38;10.32;;;2.85;;
17147;SDS011;8689;47.364;8.796;2023-10-13T14:39:06;14.65;;;3.65;;
17147;SDS011;8689;47.364;8.796;2023-10-13T14:41:35;8.68;;;2.28;;
17147;SDS011;8689;47.364;8.796;2023-10-13T14:44:02;9.38;;;2.85;;
17147;SDS011;8689;47.364;8.796;2023-10-13T14:46:33;5.22;;;2.58;;
17147;SDS011;8689;47.364;8.796;2023-10-13T14:49:04;5.80;;;2.70;;
17147;SDS011;8689;47.364;8.796;2023-10-13T14:51:31;5.40;;;2.35;;
17147;SDS011;8689;47.364;8.796;2023-10-13T14:53:58;3.30;;;1.88;;
17147;SDS011;8689;47.364;8.796;2023-10-13T14:56:26;3.28;;;2.20;;
17147;SDS011;8689;47.364;8.796;2023-10-13T14:58:54;10.63;;;2.72;;
17147;SDS011;8689;47.364;8.796;2023-10-13T15:01:21;7.65;;;3.33;;
17147;SDS011;8689;47.364;8.796;2023-10-13T15:03:53;7.03;;;2.50;;
17147;SDS011;8689;47.364;8.796;2023-10-13T15:06:22;7.18;;;2.47;;
17147;SDS011;8689;47.364;8.796;2023-10-13T15:08:54;3.92;;;1.98;;
17147;SDS011;8689;47.364;8.796;2023-10-13T15:11:23;7.65;;;2.55;;
17147;SDS011;8689;47.364;8.796;2023-10-13T15:13:52;5.00;;;2.65;;
17147;SDS011;8689;47.364;8.796;2023-10-13T15:16:21;5.55;;;2.40;;
17147;SDS011;8689;47.364;8.796;2023-10-13T15:18:50;4.68;;;2.60;;
17147;SDS011;8689;47.364;8.796;2023-10-13T15:21:20;4.55;;;2.35;;
17147;SDS011;8689;47.364;8.796;2023-10-13T15:23:48;3.33;;;2.15;;
17147;SDS011;8689;47.364;8.796;2023-10-13T15:26:16;5.72;;;2.50;;
17147;SDS011;8689;47.364;8.796;2023-10-13T15:28:46;8.88;;;2.20;;
17147;SDS011;8689;47.364;8.796;2023-10-13T15:31:15;5.43;;;2.22;;
17147;SDS011;8689;47.364;8.796;2023-10-13T15:34:04;3.83;;;2.15;;
17147;SDS011;8689;47.364;8.796;2023-10-13T15:37:05;5.55;;;2.08;;
17147;SDS011;8689;47.364;8.796;2023-10-13T15:42:40;6.38;;;2.20;;
17147;SDS011;8689;47.364;8.796;2023-10-13T15:45:07;3.00;;;2.25;;
17147;SDS011;8689;47.364;8.796;2023-10-13T15:47:46;9.25;;;2.83;;
17147;SDS011;8689;47.364;8.796;2023-10-13T15:50:15;4.57;;;2.80;;
17147;SDS011;8689;47.364;8.796;2023-10-13T15:52:47;5.32;;;2.45;;
17147;SDS011;8689;47.364;8.796;2023-10-13T15:55:17;8.55;;;2.45;;
17147;SDS011;8689;47.364;8.796;2023-10-13T15:57:44;6.20;;;2.45;;
17147;SDS011;8689;47.364;8.796;2023-10-13T16:00:18;6.68;;;2.85;;
17147;SDS011;8689;47.364;8.796;2023-10-13T16:03:02;9.45;;;2.40;;
17147;SDS011;8689;47.364;8.796;2023-10-13T16:05:35;4.53;;;2.58;;
17147;SDS011;8689;47.364;8.796;2023-10-13T16:08:10;5.22;;;2.95;;
17147;SDS011;8689;47.364;8.796;2023-10-13T16:10:41;6.15;;;2.50;;
17147;SDS011;8689;47.364;8.796;2023-10-13T16:13:08;5.25;;;2.30;;
17147;SDS011;8689;47.364;8.796;2023-10-13T16:15:40;5.40;;;2.40;;
17147;SDS011;8689;47.364;8.796;2023-10-13T16:18:09;4.30;;;2.95;;
17147;SDS011;8689;47.364;8.796;2023-10-13T16:20:36;6.97;;;2.28;;
17147;SDS011;8689;47.364;8.796;2023-10-13T16:23:06;5.50;;;2.63;;
17147;SDS011;8689;47.364;8.796;2023-10-13T16:25:35;12.87;;;3.47;;
17147;SDS011;8689;47.364;8.796;2023-10-13T16:28:02;3.30;;;2.60;;
17147;SDS011;8689;47.364;8.796;2023-10-13T16:30:30;9.23;;;3.40;;
17147;SDS011;8689;47.364;8.796;2023-10-13T16:33:02;8.63;;;4.43;;
17147;SDS011;8689;47.364;8.796;2023-10-13T16:35:30;7.80;;;5.10;;
17147;SDS011;8689;47.364;8.796;2023-10-13T16:37:59;15.10;;;5.63;;
17147;SDS011;8689;47.364;8.796;2023-10-13T16:40:33;6.30;;;3.30;;
17147;SDS011;8689;47.364;8.796;2023-10-13T16:43:00;13.70;;;4.07;;
17147;SDS011;8689;47.364;8.796;2023-10-13T16:45:28;6.40;;;3.53;;
17147;SDS011;8689;47.364;8.796;2023-10-13T16:47:56;5.30;;;3.53;;
17147;SDS011;8689;47.364;8.796;2023-10-13T16:50:24;14.07;;;3.87;;
17147;SDS011;8689;47.364;8.796;2023-10-13T16:52:53;9.10;;;3.53;;
17147;SDS011;8689;47.364;8.796;2023-10-13T16:55:22;12.73;;;3.50;;
17147;SDS011;8689;47.364;8.796;2023-10-13T16:57:51;9.47;;;3.27;;
17147;SDS011;8689;47.364;8.796;2023-10-13T17:00:19;9.60;;;3.43;;
17147;SDS011;8689;47.364;8.796;2023-10-13T17:03:06;5.07;;;3.47;;
17147;SDS011;8689;47.364;8.796;2023-10-13T17:05:42;9.67;;;3.67;;
17147;SDS011;8689;47.364;8.796;2023-10-13T17:08:18;9.50;;;3.50;;
17147;SDS011;8689;47.364;8.796;2023-10-13T17:11:14;4.27;;;3.13;;
17147;SDS011;8689;47.364;8.796;2023-10-13T17:13:44;6.13;;;3.07;;
17147;SDS011;8689;47.364;8.796;2023-10-13T17:16:13;7.30;;;3.30;;
17147;SDS011;8689;47.364;8.796;2023-10-13T17:18:42;9.73;;;3.63;;
17147;SDS011;8689;47.364;8.796;2023-10-13T17:21:14;10.30;;;4.47;;
17147;SDS011;8689;47.364;8.796;2023-10-13T17:23:42;15.73;;;5.90;;
17147;SDS011;8689;47.364;8.796;2023-10-13T17:26:12;12.73;;;4.73;;
17147;SDS011;8689;47.364;8.796;2023-10-13T17:28:53;5.93;;;3.97;;
17147;SDS011;8689;47.364;8.796;2023-10-13T17:31:23;10.37;;;4.10;;
17147;SDS011;8689;47.364;8.796;2023-10-13T17:34:57;12.90;;;3.83;;
17147;SDS011;8689;47.364;8.796;2023-10-13T17:37:09;8.27;;;3.83;;
17147;SDS011;8689;47.364;8.796;2023-10-13T17:39:46;9.77;;;3.87;;
17147;SDS011;8689;47.364;8.796;2023-10-13T17:42:14;10.57;;;3.83;;
17147;SDS011;8689;47.364;8.796;2023-10-13T17:44:42;10.30;;;3.83;;
17147;SDS011;8689;47.364;8.796;2023-10-13T17:47:10;6.07;;;3.97;;
17147;SDS011;8689;47.364;8.796;2023-10-13T17:49:39;13.67;;;4.17;;
17147;SDS011;8689;47.364;8.796;2023-10-13T17:52:07;7.57;;;4.67;;
17147;SDS011;8689;47.364;8.796;2023-10-13T17:54:36;5.10;;;4.23;;
17147;SDS011;8689;47.364;8.796;2023-10-13T17:57:03;11.23;;;3.80;;
17147;SDS011;8689;47.364;8.796;2023-10-13T17:59:32;8.77;;;4.13;;
17147;SDS011;8689;47.364;8.796;2023-10-13T18:02:02;5.70;;;4.10;;
17147;SDS011;8689;47.364;8.796;2023-10-13T18:04:29;8.03;;;4.30;;
17147;SDS011;8689;47.364;8.796;2023-10-13T18:06:57;8.23;;;4.37;;
17147;SDS011;8689;47.364;8.796;2023-10-13T18:09:24;5.67;;;4.07;;
17147;SDS011;8689;47.364;8.796;2023-10-13T18:12:00;4.23;;;3.77;;
17147;SDS011;8689;47.364;8.796;2023-10-13T18:14:31;8.20;;;4.23;;
17147;SDS011;8689;47.364;8.796;2023-10-13T18:17:15;5.40;;;3.60;;
17147;SDS011;8689;47.364;8.796;2023-10-13T18:19:43;14.17;;;3.70;;
17147;SDS011;8689;47.364;8.796;2023-10-13T18:22:12;6.03;;;3.73;;
17147;SDS011;8689;47.364;8.796;2023-10-13T18:24:42;9.30;;;4.13;;
17147;SDS011;8689;47.364;8.796;2023-10-13T18:27:33;4.40;;;3.47;;
17147;SDS011;8689;47.364;8.796;2023-10-13T18:33:31;9.23;;;4.73;;
17147;SDS011;8689;47.364;8.796;2023-10-13T18:36:09;7.07;;;3.83;;
17147;SDS011;8689;47.364;8.796;2023-10-13T18:38:38;7.80;;;4.27;;
17147;SDS011;8689;47.364;8.796;2023-10-13T18:41:05;6.13;;;4.30;;
17147;SDS011;8689;47.364;8.796;2023-10-13T18:43:33;7.47;;;3.73;;
17147;SDS011;8689;47.364;8.796;2023-10-13T18:46:03;7.90;;;3.63;;
17147;SDS011;8689;47.364;8.796;2023-10-13T18:48:36;7.57;;;4.23;;
17147;SDS011;8689;47.364;8.796;2023-10-13T18:51:05;8.43;;;3.90;;
17147;SDS011;8689;47.364;8.796;2023-10-13T18:53:33;4.43;;;3.70;;
17147;SDS011;8689;47.364;8.796;2023-10-13T18:56:05;11.67;;;4.50;;
17147;SDS011;8689;47.364;8.796;2023-10-13T18:58:35;7.10;;;3.67;;
17147;SDS011;8689;47.364;8.796;2023-10-13T19:01:09;5.70;;;4.03;;
17147;SDS011;8689;47.364;8.796;2023-10-13T19:03:42;5.87;;;4.40;;
17147;SDS011;8689;47.364;8.796;2023-10-13T19:06:22;5.70;;;3.80;;
17147;SDS011;8689;47.364;8.796;2023-10-13T19:09:00;9.50;;;3.50;;
17147;SDS011;8689;47.364;8.796;2023-10-13T19:19:25;6.87;;;3.90;;
17147;SDS011;8689;47.364;8.796;2023-10-13T19:22:32;6.27;;;3.53;;
17147;SDS011;8689;47.364;8.796;2023-10-13T19:25:03;7.47;;;4.67;;
17147;SDS011;8689;47.364;8.796;2023-10-13T19:33:52;8.53;;;4.53;;
17147;SDS011;8689;47.364;8.796;2023-10-13T19:39:54;4.33;;;3.73;;
17147;SDS011;8689;47.364;8.796;2023-10-13T19:48:48;7.83;;;4.03;;
17147;SDS011;8689;47.364;8.796;2023-10-13T19:51:17;5.30;;;4.33;;
17147;SDS011;8689;47.364;8.796;2023-10-13T19:54:06;8.97;;;4.27;;
17147;SDS011;8689;47.364;8.796;2023-10-13T20:03:48;6.30;;;3.60;;
17147;SDS011;8689;47.364;8.796;2023-10-13T20:09:57;8.63;;;4.10;;
17147;SDS011;8689;47.364;8.796;2023-10-13T20:12:44;7.63;;;4.43;;
17147;SDS011;8689;47.364;8.796;2023-10-13T20:15:41;12.67;;;4.33;;
17147;SDS011;8689;47.364;8.796;2023-10-13T20:21:41;10.97;;;4.33;;
17147;SDS011;8689;47.364;8.796;2023-10-13T20:24:26;7.17;;;4.30;;
17147;SDS011;8689;47.364;8.796;2023-10-13T20:27:01;6.00;;;3.87;;
17147;SDS011;8689;47.364;8.796;2023-10-13T20:29:29;7.13;;;3.87;;
17147;SDS011;8689;47.364;8.796;2023-10-13T20:31:59;8.63;;;4.17;;
17147;SDS011;8689;47.364;8.796;2023-10-13T20:34:26;15.60;;;6.27;;
17147;SDS011;8689;47.364;8.796;2023-10-13T20:37:01;7.07;;;4.87;;
17147;SDS011;8689;47.364;8.796;2023-10-13T20:39:32;7.50;;;4.13;;
17147;SDS011;8689;47.364;8.796;2023-10-13T20:42:02;7.57;;;3.77;;
17147;SDS011;8689;47.364;8.796;2023-10-13T20:44:33;6.77;;;4.73;;
17147;SDS011;8689;47.364;8.796;2023-10-13T20:47:06;7.80;;;4.10;;
17147;SDS011;8689;47.364;8.796;2023-10-13T20:49:41;11.50;;;4.20;;
17147;SDS011;8689;47.364;8.796;2023-10-13T20:55:08;7.07;;;4.40;;
17147;SDS011;8689;47.364;8.796;2023-10-13T20:57:46;7.00;;;4.47;;
17147;SDS011;8689;47.364;8.796;2023-10-13T21:00:29;5.30;;;3.83;;
17147;SDS011;8689;47.364;8.796;2023-10-13T21:03:27;8.47;;;3.63;;
17147;SDS011;8689;47.364;8.796;2023-10-13T21:06:03;8.73;;;4.60;;
17147;SDS011;8689;47.364;8.796;2023-10-13T21:08:45;10.70;;;4.10;;
17147;SDS011;8689;47.364;8.796;2023-10-13T21:11:28;6.50;;;4.43;;
17147;SDS011;8689;47.364;8.796;2023-10-13T21:14:00;10.40;;;4.40;;
17147;SDS011;8689;47.364;8.796;2023-10-13T21:16:31;6.27;;;4.50;;
17147;SDS011;8689;47.364;8.796;2023-10-13T21:19:03;8.17;;;4.83;;
17147;SDS011;8689;47.364;8.796;2023-10-13T21:21:46;5.73;;;4.20;;
17147;SDS011;8689;47.364;8.796;2023-10-13T21:27:16;5.80;;;4.07;;
17147;SDS011;8689;47.364;8.796;2023-10-13T21:29:58;6.77;;;4.30;;
17147;SDS011;8689;47.364;8.796;2023-10-13T21:36:11;8.90;;;4.93;;
17147;SDS011;8689;47.364;8.796;2023-10-13T21:39:05;9.77;;;4.30;;
17147;SDS011;8689;47.364;8.796;2023-10-13T21:41:47;9.07;;;4.40;;
17147;SDS011;8689;47.364;8.796;2023-10-13T21:44:19;8.40;;;4.60;;
17147;SDS011;8689;47.364;8.796;2023-10-13T21:46:55;8.20;;;5.10;;
17147;SDS011;8689;47.364;8.796;2023-10-13T21:50:26;10.73;;;4.47;;
17147;SDS011;8689;47.364;8.796;2023-10-13T21:53:37;7.07;;;4.57;;
17147;SDS011;8689;47.364;8.796;2023-10-13T21:56:44;8.63;;;4.60;;
17147;SDS011;8689;47.364;8.796;2023-10-13T21:59:36;5.90;;;4.70;;
17147;SDS011;8689;47.364;8.796;2023-10-13T22:02:31;11.53;;;4.97;;
17147;SDS011;8689;47.364;8.796;2023-10-13T22:08:45;8.53;;;6.10;;
17147;SDS011;8689;47.364;8.796;2023-10-13T22:11:32;5.50;;;4.80;;
17147;SDS011;8689;47.364;8.796;2023-10-13T22:21:17;8.50;;;4.97;;
17147;SDS011;8689;47.364;8.796;2023-10-13T22:27:36;6.87;;;4.53;;
17147;SDS011;8689;47.364;8.796;2023-10-13T22:30:23;6.87;;;4.37;;
17147;SDS011;8689;47.364;8.796;2023-10-13T22:39:39;6.93;;;5.50;;
17147;SDS011;8689;47.364;8.796;2023-10-13T22:50:12;7.83;;;4.40;;
17147;SDS011;8689;47.364;8.796;2023-10-13T22:52:47;7.03;;;4.60;;
17147;SDS011;8689;47.364;8.796;2023-10-13T22:55:49;7.00;;;4.37;;
17147;SDS011;8689;47.364;8.796;2023-10-13T23:08:27;7.47;;;4.53;;
17147;SDS011;8689;47.364;8.796;2023-10-13T23:11:51;6.10;;;4.47;;
17147;SDS011;8689;47.364;8.796;2023-10-13T23:15:01;7.13;;;4.37;;
17147;SDS011;8689;47.364;8.796;2023-10-13T23:21:18;6.63;;;4.77;;
17147;SDS011;8689;47.364;8.796;2023-10-13T23:24:46;6.30;;;4.53;;
17147;SDS011;8689;47.364;8.796;2023-10-13T23:27:55;7.60;;;5.00;;
17147;SDS011;8689;47.364;8.796;2023-10-13T23:30:27;9.30;;;4.83;;
17147;SDS011;8689;47.364;8.796;2023-10-13T23:34:56;7.40;;;5.07;;
17147;SDS011;8689;47.364;8.796;2023-10-13T23:40:07;7.77;;;4.50;;
17147;SDS011;8689;47.364;8.796;2023-10-13T23:43:29;9.97;;;4.47;;
17147;SDS011;8689;47.364;8.796;2023-10-13T23:46:17;9.57;;;5.50;;
17147;SDS011;8689;47.364;8.796;2023-10-13T23:55:40;8.40;;;5.03;;
